createdAt,value
2022-10-09T02:47:22.937Z,94.85
2022-10-09T02:48:24.870Z,94.85
2022-10-09T02:49:24.059Z,95.27
2022-10-09T02:50:23.970Z,95.58
2022-10-09T02:51:23.995Z,96.16
2022-10-09T02:52:23.946Z,96.37
2022-10-09T02:53:23.983Z,96.33
2022-10-09T02:54:23.908Z,96.33
2022-10-09T02:55:23.976Z,96.12
2022-10-09T02:56:23.968Z,96.18
2022-10-09T02:57:23.915Z,96.22
2022-10-09T02:58:23.887Z,95.91
2022-10-09T02:59:23.899Z,95.14
2022-10-09T03:00:23.902Z,95.35
2022-10-09T03:01:23.887Z,95.25
2022-10-09T03:02:24.101Z,95.56
2022-10-09T03:03:23.839Z,95.14
2022-10-09T03:04:23.832Z,94.72
2022-10-09T03:05:23.795Z,94.26
2022-10-09T03:06:23.885Z,94.62
2022-10-09T03:07:23.826Z,94.10
2022-10-09T03:08:23.814Z,94.41
2022-10-09T03:09:24.384Z,94.62
2022-10-09T03:10:23.734Z,94.20
2022-10-09T03:11:24.814Z,94.16
2022-10-09T03:12:23.741Z,93.64
2022-10-09T03:13:23.749Z,93.64
2022-10-09T03:14:23.727Z,93.95
2022-10-09T03:15:23.720Z,93.74
2022-10-09T03:16:24.038Z,93.12
2022-10-09T03:17:23.683Z,93.05
2022-10-09T03:18:23.680Z,92.95
2022-10-09T03:19:23.678Z,92.33
2022-10-09T03:20:23.675Z,92.37
2022-10-09T03:21:23.714Z,92.10
2022-10-09T03:22:23.659Z,92.47
2022-10-09T03:23:23.688Z,92.58
2022-10-09T03:24:23.636Z,92.79
2022-10-09T03:25:23.690Z,92.58
2022-10-09T03:26:23.628Z,92.47
2022-10-09T03:27:23.602Z,92.37
2022-10-09T03:28:23.729Z,92.43
2022-10-09T03:29:23.588Z,91.91
2022-10-09T03:30:23.644Z,92.22
2022-10-09T03:31:46.926Z,91.91
2022-10-09T03:32:25.633Z,91.91
2022-10-09T03:33:23.559Z,92.37
2022-10-09T03:34:23.517Z,92.43
2022-10-09T03:35:23.561Z,92.54
2022-10-09T03:36:23.500Z,92.54
2022-10-09T03:37:23.613Z,92.43
2022-10-09T03:38:23.467Z,92.43
2022-10-09T03:39:23.507Z,92.12
2022-10-09T03:40:23.476Z,90.87
2022-10-09T03:41:23.421Z,91.02
2022-10-09T03:42:23.517Z,90.91
2022-10-09T03:43:23.436Z,90.91
2022-10-09T03:44:23.513Z,91.64
2022-10-09T03:45:23.419Z,91.43
2022-10-09T03:46:23.400Z,91.50
2022-10-09T03:47:23.429Z,91.60
2022-10-09T03:48:23.390Z,91.39
2022-10-09T03:49:23.403Z,90.81
2022-10-09T03:50:23.374Z,91.02
2022-10-09T03:51:23.398Z,90.81
2022-10-09T03:52:23.413Z,91.02
2022-10-09T03:53:23.335Z,91.37
2022-10-09T03:54:23.375Z,91.06
2022-10-09T03:55:23.334Z,91.93
2022-10-09T03:56:24.060Z,92.14
2022-10-09T03:57:23.294Z,92.46
2022-10-09T03:58:23.284Z,93.04
2022-10-09T03:59:23.230Z,92.93
2022-10-09T04:00:23.254Z,93.24
2022-10-09T04:01:23.327Z,93.04
2022-10-09T04:02:23.289Z,92.97
2022-10-09T04:03:24.001Z,92.83
2022-10-09T04:04:23.188Z,92.72
2022-10-09T04:05:23.236Z,92.83
2022-10-09T04:06:23.186Z,92.93
2022-10-09T04:07:23.234Z,92.47
2022-10-09T04:08:23.217Z,92.68
2022-10-09T04:09:23.160Z,92.68
2022-10-09T04:10:23.192Z,92.47
2022-10-09T04:11:23.173Z,92.99
2022-10-09T04:12:23.173Z,92.68
2022-10-09T04:13:23.155Z,92.10
2022-10-09T04:14:23.112Z,92.62
2022-10-09T04:15:23.166Z,92.97
2022-10-09T04:16:23.173Z,92.56
2022-10-09T04:17:23.133Z,93.35
2022-10-09T04:18:23.087Z,93.98
2022-10-09T04:19:23.078Z,93.77
2022-10-09T04:20:23.045Z,93.93
2022-10-09T04:21:23.078Z,94.35
2022-10-09T04:22:23.051Z,94.56
2022-10-09T04:23:23.036Z,94.56
2022-10-09T04:24:23.097Z,94.76
2022-10-09T04:25:23.031Z,94.35
2022-10-09T04:26:23.023Z,94.76
2022-10-09T04:27:23.038Z,94.98
2022-10-09T04:28:23.118Z,94.72
2022-10-09T04:29:22.931Z,94.72
2022-10-09T04:30:22.990Z,94.62
2022-10-09T04:31:22.985Z,94.76
2022-10-09T04:32:22.991Z,94.66
2022-10-09T04:33:22.980Z,94.56
2022-10-09T04:34:22.970Z,94.76
2022-10-09T04:35:22.923Z,95.08
2022-10-09T04:36:22.909Z,94.72
2022-10-09T04:37:22.947Z,94.62
2022-10-09T04:38:22.881Z,94.82
2022-10-09T04:39:22.894Z,94.87
2022-10-09T04:40:22.842Z,94.87
2022-10-09T04:41:22.858Z,94.76
2022-10-09T04:42:22.864Z,94.98
2022-10-09T04:43:22.854Z,94.87
2022-10-09T04:44:22.857Z,94.62
2022-10-09T04:45:23.025Z,94.93
2022-10-09T04:46:22.890Z,95.14
2022-10-09T04:47:22.815Z,94.93
2022-10-09T04:48:22.784Z,95.25
2022-10-09T04:49:22.790Z,94.51
2022-10-09T04:50:22.773Z,94.82
2022-10-09T04:51:22.763Z,95.25
2022-10-09T04:52:22.787Z,95.20
2022-10-09T04:53:22.729Z,95.09
2022-10-09T04:54:22.705Z,95.20
2022-10-09T04:55:22.835Z,95.25
2022-10-09T04:56:22.702Z,95.51
2022-10-09T04:57:22.742Z,95.51
2022-10-09T04:58:22.690Z,95.30
2022-10-09T04:59:23.490Z,95.51
2022-10-09T05:00:22.705Z,95.51
2022-10-09T05:01:22.715Z,95.30
2022-10-09T05:02:22.801Z,95.20
2022-10-09T05:03:22.651Z,95.14
2022-10-09T05:04:22.686Z,95.20
2022-10-09T05:05:22.645Z,95.20
2022-10-09T05:06:22.693Z,95.30
2022-10-09T05:07:22.628Z,95.20
2022-10-09T05:08:22.618Z,95.20
2022-10-09T05:09:22.569Z,95.09
2022-10-09T05:10:23.597Z,95.15
2022-10-09T05:11:22.581Z,94.84
2022-10-09T05:12:22.526Z,95.05
2022-10-09T05:13:23.517Z,95.05
2022-10-09T05:14:22.585Z,94.84
2022-10-09T05:15:22.536Z,94.89
2022-10-09T05:16:22.626Z,95.05
2022-10-09T05:17:23.621Z,95.15
2022-10-09T05:18:23.511Z,95.01
2022-10-09T05:19:22.506Z,95.05
2022-10-09T05:20:22.462Z,94.90
2022-10-09T05:21:22.496Z,95.11
2022-10-09T05:22:22.445Z,95.01
2022-10-09T05:23:22.486Z,95.01
2022-10-09T05:24:22.462Z,94.90
2022-10-09T05:25:22.416Z,95.01
2022-10-09T05:26:22.435Z,95.01
2022-10-09T05:27:22.566Z,94.80
2022-10-09T05:28:22.445Z,94.90
2022-10-09T05:29:22.374Z,95.11
2022-10-09T05:30:22.362Z,94.49
2022-10-09T05:31:22.478Z,94.55
2022-10-09T05:32:22.393Z,94.55
2022-10-09T05:33:22.397Z,94.55
2022-10-09T05:34:22.389Z,94.59
2022-10-09T05:35:22.306Z,94.34
2022-10-09T05:36:22.344Z,94.65
2022-10-09T05:37:23.305Z,94.38
2022-10-09T05:38:22.314Z,94.70
2022-10-09T05:39:22.322Z,94.34
2022-10-09T05:40:25.865Z,94.07
2022-10-09T05:41:24.299Z,94.49
2022-10-09T05:42:22.214Z,94.59
2022-10-09T05:43:22.266Z,94.13
2022-10-09T05:44:22.230Z,94.38
2022-10-09T05:45:22.248Z,94.03
2022-10-09T05:46:22.232Z,94.28
2022-10-09T05:47:22.227Z,94.34
2022-10-09T05:48:22.997Z,94.38
2022-10-09T05:49:22.198Z,94.28
2022-10-09T05:50:22.200Z,94.28
2022-10-09T05:51:22.204Z,94.80
2022-10-09T05:52:22.154Z,94.49
2022-10-09T05:53:22.160Z,94.90
2022-10-09T05:54:22.178Z,95.01
2022-10-09T05:55:22.143Z,94.96
2022-10-09T05:56:22.178Z,95.11
2022-10-09T05:57:22.168Z,95.32
2022-10-09T05:58:22.117Z,95.28
2022-10-09T05:59:22.090Z,95.59
2022-10-09T06:00:22.622Z,96.11
2022-10-09T06:01:22.224Z,96.00
2022-10-09T06:02:22.129Z,96.00
2022-10-09T06:03:22.031Z,95.59
2022-10-09T06:04:22.050Z,96.11
2022-10-09T06:05:22.030Z,96.11
2022-10-09T06:06:22.073Z,96.00
2022-10-09T06:07:22.032Z,96.00
2022-10-09T06:08:22.001Z,95.96
2022-10-09T06:09:22.996Z,96.00
2022-10-09T06:10:22.022Z,96.00
2022-10-09T06:11:22.387Z,95.90
2022-10-09T06:12:21.922Z,96.11
2022-10-09T06:13:22.038Z,96.00
2022-10-09T06:14:22.198Z,95.96
2022-10-09T06:15:21.958Z,95.75
2022-10-09T06:16:22.105Z,95.86
2022-10-09T06:17:21.985Z,96.00
2022-10-09T06:18:21.955Z,95.96
2022-10-09T06:19:21.917Z,95.86
2022-10-09T06:20:21.862Z,96.00
2022-10-09T06:21:21.997Z,95.90
2022-10-09T06:32:14.762Z,96.17
2022-10-09T06:33:14.824Z,95.96
2022-10-09T06:34:14.774Z,95.86
2022-10-09T06:44:01.512Z,94.36
2022-10-09T06:45:01.527Z,94.20
2022-10-09T06:46:01.475Z,94.51
2022-10-09T06:47:01.593Z,94.61
2022-10-09T06:48:01.342Z,95.03
2022-10-09T06:49:01.356Z,95.03
2022-10-09T06:50:03.307Z,95.13
2022-10-09T06:51:01.295Z,95.03
2022-10-09T06:52:01.321Z,95.07
2022-10-09T06:53:01.275Z,94.92
